Time;durP1;ratioP1;P1;durP2;ratioP2;P2;SDS_P1;SDS_P2;PMS_P1;PMS_P2;Temp;Humidity;BMP_temperature;BMP_pressure;BME280_temperature;BME280_humidity;BME280_pressure;Samples;Min_cycle;Max_cycle;Signal;HPM_P1;HPM_P2
2020/12/18 00:01:20;;;;;;;;;;;;;;;3.40;88.32;100717.78;5094362;28;20437;-68
2020/12/18 00:03:52;;;;;;;;;;;;;;;3.36;88.19;100713.34;5094320;28;19931;-69
2020/12/18 00:06:19;;;;;;;;;;;;;;;3.35;87.88;100714.19;5094152;28;20370;-69
2020/12/18 00:08:47;;;;;;;;;;;;;;;3.34;88.27;100709.91;5094189;28;19969;-68
2020/12/18 00:11:18;;;;;;;;;;;;;;;3.35;88.01;100717.56;5094237;28;19931;-69
2020/12/18 00:13:47;;;;;;;;;;;;;;;3.40;88.04;100715.25;5094189;28;20018;-71
2020/12/18 00:16:15;;;;;;;;;;;;;;;3.35;88.18;100717.56;5093891;28;19924;-70
2020/12/18 00:18:44;;;;;;;;;;;;;;;3.32;87.53;100711.50;5094128;28;19969;-70
2020/12/18 00:21:15;;;;;;;;;;;;;;;3.29;88.09;100711.38;5094112;28;19924;-70
2020/12/18 00:23:42;;;;;;;;;;;;;;;3.28;87.84;100714.69;5094103;28;20385;-70
2020/12/18 00:26:10;;;;;;;;;;;;;;;3.32;87.75;100716.56;5094057;28;19990;-70
2020/12/18 00:28:37;;;;;;;;;;;;;;;3.33;87.34;100715.78;5094033;28;19924;-71
2020/12/18 00:31:05;;;;;;;;;;;;;;;3.29;87.34;100721.47;5094117;28;19959;-70
2020/12/18 00:33:33;;;;;;;;;;;;;;;3.29;87.99;100724.84;5098243;28;19931;-71
2020/12/18 00:36:01;;;;;;;;;;;;;;;3.30;88.09;100728.25;5098157;28;19924;-71
2020/12/18 00:38:29;;;;;;;;;;;;;;;3.34;87.92;100730.09;5098005;28;19959;-71
2020/12/18 00:40:56;;;;;;;;;;;;;;;3.37;87.61;100722.66;5098364;28;20012;-71
2020/12/18 00:43:23;;;;;;;;;;;;;;;3.35;88.01;100721.75;5097965;28;19932;-71
2020/12/18 00:45:51;;;;;;;;;;;;;;;3.36;88.00;100726.84;5098042;28;19966;-70
2020/12/18 00:48:19;;;;;;;;;;;;;;;3.40;87.96;100730.38;5097807;28;19956;-69
2020/12/18 00:50:47;;;;;;;;;;;;;;;3.38;87.59;100737.03;5097960;28;19924;-71
2020/12/18 00:53:14;;;;;;;;;;;;;;;3.32;87.21;100726.66;5096641;28;20338;-69
2020/12/18 00:55:45;;;;;;;;;;;;;;;3.29;88.04;100731.53;5097033;28;20378;-71
2020/12/18 00:58:13;;;;;;;;;;;;;;;3.29;87.16;100736.59;5096417;28;19955;-70
2020/12/18 01:00:41;;;;;;;;;;;;;;;3.27;87.60;100733.13;5096503;28;19955;-71
2020/12/18 01:03:16;;;;;;;;;;;;;;;3.27;87.23;100738.19;5096598;28;19966;-69
2020/12/18 01:05:46;;;;;;;;;;;;;;;3.31;87.33;100735.03;5096280;28;19932;-70
2020/12/18 01:08:19;;;;;;;;;;;;;;;3.32;87.92;100737.59;5097573;28;19990;-70
2020/12/18 01:10:47;;;;;;;;;;;;;;;3.31;87.46;100738.38;5096241;28;19924;-72
2020/12/18 01:13:16;;;;;;;;;;;;;;;3.29;87.71;100729.03;5096312;28;19931;-71
2020/12/18 01:15:46;;;;;;;;;;;;;;;3.27;87.95;100728.09;5096363;28;19931;-69
2020/12/18 01:18:26;;;;;;;;;;;;;;;3.26;87.59;100722.19;5096173;28;20304;-69
2020/12/18 01:20:58;;;;;;;;;;;;;;;3.24;87.41;100715.34;5097345;28;19968;-71
2020/12/18 01:23:28;;;;;;;;;;;;;;;3.25;87.88;100719.59;5096053;28;20419;-70
2020/12/18 01:26:02;;;;;;;;;;;;;;;3.24;87.14;100722.91;5096125;28;20021;-69
2020/12/18 01:28:29;;;;;;;;;;;;;;;3.28;87.91;100714.69;5097353;28;19928;-69
2020/12/18 01:30:57;;;;;;;;;;;;;;;3.30;87.38;100725.72;5097432;28;20019;-68
2020/12/18 01:33:26;;;;;;;;;;;;;;;3.29;87.56;100723.97;5096167;28;19924;-69
2020/12/18 01:35:56;;;;;;;;;;;;;;;3.32;87.46;100732.56;5097053;28;19924;-69
2020/12/18 01:38:36;;;;;;;;;;;;;;;3.32;88.02;100727.50;5095763;28;20011;-69
2020/12/18 01:41:06;;;;;;;;;;;;;;;3.31;87.80;100729.97;5095724;28;19990;-71
2020/12/18 01:43:33;;;;;;;;;;;;;;;3.30;87.17;100733.28;5096160;28;19924;-69
2020/12/18 01:46:03;;;;;;;;;;;;;;;3.34;87.92;100737.66;5095656;28;20408;-69
2020/12/18 01:48:31;;;;;;;;;;;;;;;3.34;88.16;100730.09;5096737;28;19924;-68
2020/12/18 01:51:05;;;;;;;;;;;;;;;3.34;87.81;100730.09;5095614;28;19974;-68
2020/12/18 01:53:33;;;;;;;;;;;;;;;3.34;87.66;100730.09;5096599;28;19946;-69
2020/12/18 01:56:12;;;;;;;;;;;;;;;3.34;87.42;100735.16;5096735;28;19925;-69
2020/12/18 01:58:44;;;;;;;;;;;;;;;3.36;87.71;100725.97;5095293;28;19924;-71
2020/12/18 02:01:19;;;;;;;;;;;;;;;3.39;87.24;100728.66;5095467;28;19924;-68
2020/12/18 02:04:26;;;;;;;;;;;;;;;3.38;87.76;100726.94;5034450;28;20350;-71
2020/12/18 02:06:55;;;;;;;;;;;;;;;3.35;87.70;100731.84;5034486;28;20011;-69
2020/12/18 02:09:30;;;;;;;;;;;;;;;3.33;87.34;100723.34;5034355;28;19929;-69
2020/12/18 02:12:04;;;;;;;;;;;;;;;3.34;87.51;100725.06;5034258;28;19975;-69
2020/12/18 02:14:35;;;;;;;;;;;;;;;3.34;86.88;100720.00;5034063;28;19925;-69
2020/12/18 02:17:17;;;;;;;;;;;;;;;3.32;87.51;100716.56;5033878;28;19925;-69
2020/12/18 02:19:50;;;;;;;;;;;;;;;3.34;87.18;100730.09;4959165;28;20376;-68
2020/12/18 02:22:20;;;;;;;;;;;;;;;3.33;87.59;100733.44;4975305;28;19930;-71
2020/12/18 02:24:58;;;;;;;;;;;;;;;3.33;87.55;100723.34;4959230;28;19926;-71
2020/12/18 02:27:26;;;;;;;;;;;;;;;3.36;87.16;100723.47;4974874;28;19930;-69
2020/12/18 02:29:58;;;;;;;;;;;;;;;3.35;87.21;100720.09;4975070;28;19926;-68
2020/12/18 02:32:29;;;;;;;;;;;;;;;3.37;87.79;100715.09;4974817;28;19928;-70
2020/12/18 02:35:03;;;;;;;;;;;;;;;3.39;87.06;100719.44;4958967;28;20368;-69
2020/12/18 02:37:35;;;;;;;;;;;;;;;3.38;87.28;100716.84;4975040;28;19926;-70
2020/12/18 02:40:04;;;;;;;;;;;;;;;3.37;87.55;100720.16;4974662;28;20281;-69
2020/12/18 02:42:53;;;;;;;;;;;;;;;3.39;87.39;100718.56;5013602;28;19968;-69
2020/12/18 02:45:22;;;;;;;;;;;;;;;3.37;87.72;100720.16;4997687;28;19933;-69
2020/12/18 02:48:10;;;;;;;;;;;;;;;3.33;87.52;100713.25;5012943;28;20440;-69
2020/12/18 02:50:46;;;;;;;;;;;;;;;3.30;87.19;100708.06;4997370;28;20008;-69
2020/12/18 02:53:13;;;;;;;;;;;;;;;3.32;87.66;100716.56;5013564;28;19925;-70
2020/12/18 02:55:44;;;;;;;;;;;;;;;3.31;87.21;100714.84;5012507;28;19971;-69
2020/12/18 02:58:15;;;;;;;;;;;;;;;3.32;87.17;100722.47;5095404;28;20052;-71
2020/12/18 03:00:48;;;;;;;;;;;;;;;3.34;87.20;100720.00;5094571;28;19924;-68
2020/12/18 03:03:19;;;;;;;;;;;;;;;3.32;87.88;100716.56;5094196;28;19925;-70
2020/12/18 03:05:51;;;;;;;;;;;;;;;3.32;86.92;100721.59;5094163;28;19924;-69
2020/12/18 03:08:31;;;;;;;;;;;;;;;3.37;87.53;100720.16;5095271;28;19924;-69
2020/12/18 03:11:05;;;;;;;;;;;;;;;3.39;87.18;100716.03;5095279;28;19924;-70
2020/12/18 03:13:34;;;;;;;;;;;;;;;3.45;87.55;100703.69;5093954;28;19990;-71
2020/12/18 03:16:01;;;;;;;;;;;;;;;3.50;87.41;100712.34;5095041;28;20360;-68
2020/12/18 03:18:32;;;;;;;;;;;;;;;3.51;87.17;100711.53;5095009;28;20370;-69
2020/12/18 03:21:07;;;;;;;;;;;;;;;3.51;87.07;100710.66;5093778;28;19924;-69
2020/12/18 03:23:54;;;;;;;;;;;;;;;3.49;87.41;100715.66;5094863;28;19924;-68
2020/12/18 03:26:34;;;;;;;;;;;;;;;3.47;87.38;100712.19;5094965;28;19924;-70
2020/12/18 03:29:10;;;;;;;;;;;;;;;3.49;86.88;100714.78;5093767;28;19934;-68
2020/12/18 03:31:38;;;;;;;;;;;;;;;3.51;87.44;100716.56;5093619;28;19931;-70
2020/12/18 03:34:06;;;;;;;;;;;;;;;3.51;86.98;100714.03;5076892;28;20309;-70
2020/12/18 03:36:40;;;;;;;;;;;;;;;3.49;87.20;100715.66;5093659;28;20390;-70
2020/12/18 03:39:13;;;;;;;;;;;;;;;3.49;87.07;100710.59;5094652;28;19924;-70
2020/12/18 03:41:55;;;;;;;;;;;;;;;3.47;87.46;100712.19;5076951;28;19959;-69
2020/12/18 03:44:25;;;;;;;;;;;;;;;3.46;86.79;100723.06;5093408;28;20433;-69
2020/12/18 03:46:53;;;;;;;;;;;;;;;3.43;87.13;100715.41;5093712;28;20027;-68
2020/12/18 03:49:23;;;;;;;;;;;;;;;3.44;87.36;100723.78;5094411;28;19924;-68
2020/12/18 03:51:58;;;;;;;;;;;;;;;3.44;87.41;100717.09;5094521;28;19982;-69
2020/12/18 03:54:31;;;;;;;;;;;;;;;3.39;86.98;100713.50;5094524;28;19924;-68
2020/12/18 03:57:19;;;;;;;;;;;;;;;3.40;86.62;100715.25;5094639;28;19924;-69
2020/12/18 03:59:51;;;;;;;;;;;;;;;3.41;87.37;100711.91;5094276;28;19924;-69
2020/12/18 04:02:39;;;;;;;;;;;;;;;3.41;86.94;100719.47;5094706;28;20026;-68
2020/12/18 04:05:09;;;;;;;;;;;;;;;3.31;87.26;100709.81;5093384;28;19925;-69
2020/12/18 04:07:37;;;;;;;;;;;;;;;3.25;86.64;100709.50;5092770;28;19924;-70
2020/12/18 04:10:16;;;;;;;;;;;;;;;3.28;86.89;100714.69;5093094;28;19924;-69
2020/12/18 04:13:04;;;;;;;;;;;;;;;3.33;87.35;100713.25;5093117;28;19973;-69
2020/12/18 04:15:33;;;;;;;;;;;;;;;3.36;87.02;100718.41;5092685;28;20418;-68
2020/12/18 04:18:02;;;;;;;;;;;;;;;3.32;86.96;100726.66;5092610;28;20238;-68
2020/12/18 04:20:29;;;;;;;;;;;;;;;3.34;87.40;100720.88;5092907;28;19932;-68
2020/12/18 04:23:16;;;;;;;;;;;;;;;3.37;87.60;100740.34;5093972;28;19966;-70
2020/12/18 04:26:04;;;;;;;;;;;;;;;3.37;87.82;100735.28;5094067;28;20297;-71
2020/12/18 04:28:32;;;;;;;;;;;;;;;3.36;87.88;100738.59;5092794;28;19931;-68
2020/12/18 04:31:00;;;;;;;;;;;;;;;3.36;87.32;100739.47;5093182;28;19935;-68
2020/12/18 04:33:28;;;;;;;;;;;;;;;3.29;88.03;100736.59;5092797;28;19924;-69
2020/12/18 04:35:55;;;;;;;;;;;;;;;3.29;87.96;100732.41;5092835;28;19931;-69
2020/12/18 04:38:29;;;;;;;;;;;;;;;3.30;87.94;100745.91;5094269;28;20028;-70
2020/12/18 04:41:04;;;;;;;;;;;;;;;3.35;88.02;100741.94;5093820;28;19973;-68
2020/12/18 04:43:40;;;;;;;;;;;;;;;3.32;87.83;100741.78;5092789;28;19968;-69
2020/12/18 04:46:16;;;;;;;;;;;;;;;3.29;88.04;100737.47;5092792;28;19931;-69
2020/12/18 04:48:48;;;;;;;;;;;;;;;3.32;87.35;100736.75;5092682;28;20437;-70
2020/12/18 04:51:18;;;;;;;;;;;;;;;3.30;87.61;100748.41;5093076;28;19925;-70
2020/12/18 04:53:53;;;;;;;;;;;;;;;3.30;87.90;100753.47;5092694;28;20007;-69
2020/12/18 04:56:34;;;;;;;;;;;;;;;3.35;87.31;100757.06;5092676;28;20011;-69
2020/12/18 04:59:11;;;;;;;;;;;;;;;3.39;87.90;100754.75;5092619;28;20404;-70
2020/12/18 05:01:42;;;;;;;;;;;;;;;3.37;87.38;100751.28;5093789;28;19931;-69
2020/12/18 05:04:11;;;;;;;;;;;;;;;3.39;87.69;100751.34;5092573;28;19924;-69
2020/12/18 05:06:48;;;;;;;;;;;;;;;3.39;87.28;100746.31;5093777;28;19995;-68
2020/12/18 05:09:26;;;;;;;;;;;;;;;3.39;87.18;100761.44;5092507;28;19924;-68
2020/12/18 05:11:55;;;;;;;;;;;;;;;3.42;87.67;100751.50;5092399;28;19923;-70
2020/12/18 05:14:28;;;;;;;;;;;;;;;3.44;87.99;100757.47;5093594;28;19935;-69
2020/12/18 05:17:06;;;;;;;;;;;;;;;3.46;87.75;100760.91;5092733;28;20318;-69
2020/12/18 05:19:35;;;;;;;;;;;;;;;3.42;87.72;100758.19;5095115;28;19924;-69
2020/12/18 05:22:06;;;;;;;;;;;;;;;3.36;87.41;100763.81;5097640;28;19963;-69
2020/12/18 05:24:36;;;;;;;;;;;;;;;3.41;87.19;100767.41;5097310;28;19924;-69
2020/12/18 05:27:04;;;;;;;;;;;;;;;3.49;87.41;100773.69;5095961;28;20353;-70
2020/12/18 05:29:32;;;;;;;;;;;;;;;3.46;87.76;100773.53;5095985;28;20432;-68
2020/12/18 05:32:19;;;;;;;;;;;;;;;3.51;87.75;100771.22;5096015;28;20011;-69
2020/12/18 05:34:51;;;;;;;;;;;;;;;3.49;87.60;100771.16;5096009;28;19924;-70
2020/12/18 05:37:22;;;;;;;;;;;;;;;3.51;87.58;100784.69;5097038;28;20007;-71
2020/12/18 05:40:05;;;;;;;;;;;;;;;3.50;87.46;100772.91;5095833;28;20022;-70
2020/12/18 05:42:38;;;;;;;;;;;;;;;3.46;86.62;100765.09;5097005;28;20235;-70
2020/12/18 05:45:10;;;;;;;;;;;;;;;3.47;86.83;100766.84;5078946;28;19924;-70
2020/12/18 05:47:43;;;;;;;;;;;;;;;3.42;87.16;100754.03;5096870;28;19950;-70
2020/12/18 05:50:12;;;;;;;;;;;;;;;3.42;86.86;100761.59;5095617;28;20323;-69
2020/12/18 05:52:40;;;;;;;;;;;;;;;3.43;87.27;100764.97;5095612;28;19997;-71
2020/12/18 05:55:14;;;;;;;;;;;;;;;3.46;86.41;100773.53;5095556;28;20395;-69
2020/12/18 05:57:45;;;;;;;;;;;;;;;3.47;87.08;100777.81;5096739;28;19973;-69
2020/12/18 06:00:18;;;;;;;;;;;;;;;3.44;86.91;100795.31;5095711;28;19924;-69
2020/12/18 06:02:49;;;;;;;;;;;;;;;3.43;86.24;100795.25;5096639;28;19946;-71
2020/12/18 06:05:25;;;;;;;;;;;;;;;3.38;86.42;100802.63;5095336;28;19924;-69
2020/12/18 06:08:07;;;;;;;;;;;;;;;3.36;87.09;100804.19;5095319;28;19930;-69
2020/12/18 06:10:37;;;;;;;;;;;;;;;3.38;87.01;100807.66;5095258;28;19924;-70
2020/12/18 06:13:16;;;;;;;;;;;;;;;3.38;87.00;100802.63;5095192;28;19924;-69
2020/12/18 06:15:46;;;;;;;;;;;;;;;3.41;86.47;100809.47;5096141;28;19924;-70
2020/12/18 06:18:15;;;;;;;;;;;;;;;3.42;86.47;100812.06;5095101;28;19924;-70
2020/12/18 06:20:45;;;;;;;;;;;;;;;3.36;86.93;100809.22;5094883;28;19930;-70
2020/12/18 06:23:14;;;;;;;;;;;;;;;3.34;86.76;100821.78;5096154;28;20425;-70
2020/12/18 06:25:46;;;;;;;;;;;;;;;3.41;87.03;100822.94;5096542;28;19924;-70
2020/12/18 06:28:16;;;;;;;;;;;;;;;3.44;86.97;100817.16;5095169;28;20286;-69
2020/12/18 06:30:58;;;;;;;;;;;;;;;3.43;86.99;100818.84;5095818;28;19946;-69
2020/12/18 06:33:44;;;;;;;;;;;;;;;3.43;87.19;100823.88;5096023;28;20023;-70
2020/12/18 06:36:47;;;;;;;;;;;;;;;3.43;86.52;100816.31;5095731;28;19924;-70
2020/12/18 06:39:23;;;;;;;;;;;;;;;3.45;87.03;100824.81;5094619;28;19984;-69
2020/12/18 06:41:57;;;;;;;;;;;;;;;3.43;87.07;100823.88;5094928;28;19924;-70
2020/12/18 06:44:46;;;;;;;;;;;;;;;3.42;87.11;100824.66;5095596;28;19931;-69
2020/12/18 06:47:19;;;;;;;;;;;;;;;3.41;86.44;100820.41;5095739;28;19924;-69
2020/12/18 06:49:52;;;;;;;;;;;;;;;3.43;86.47;100830.59;5095710;28;19924;-70
2020/12/18 06:52:40;;;;;;;;;;;;;;;3.43;86.35;100826.41;5097433;28;19924;-69
2020/12/18 06:55:09;;;;;;;;;;;;;;;3.43;87.05;100816.31;5094259;28;20007;-70
2020/12/18 06:58:08;;;;;;;;;;;;;;;3.45;86.82;100819.78;5094797;28;19974;-70
2020/12/18 07:00:37;;;;;;;;;;;;;;;3.45;86.94;100817.25;5095471;28;19963;-69
2020/12/18 07:03:05;;;;;;;;;;;;;;;3.47;86.67;100820.69;5095360;28;19970;-71
2020/12/18 07:05:36;;;;;;;;;;;;;;;3.45;87.10;100819.78;5095356;28;20385;-70
2020/12/18 07:08:05;;;;;;;;;;;;;;;3.45;86.60;100824.81;5095305;28;19928;-69
2020/12/18 07:10:37;;;;;;;;;;;;;;;3.42;86.42;100824.66;5095211;28;19924;-69
2020/12/18 07:13:04;;;;;;;;;;;;;;;3.45;86.30;100829.88;5095275;28;19924;-71
2020/12/18 07:15:34;;;;;;;;;;;;;;;3.45;87.12;100827.34;5094909;28;19931;-69
2020/12/18 07:18:03;;;;;;;;;;;;;;;3.46;86.56;100826.53;5095106;28;19924;-70
2020/12/18 07:20:31;;;;;;;;;;;;;;;3.47;86.71;100828.28;5094993;28;19924;-69
2020/12/18 07:22:59;;;;;;;;;;;;;;;3.53;86.78;100833.59;5095099;28;19970;-72
2020/12/18 07:25:26;;;;;;;;;;;;;;;3.52;86.91;100826.81;5094974;28;19977;-70
2020/12/18 07:27:57;;;;;;;;;;;;;;;3.53;86.84;100833.59;5094901;28;20007;-70
2020/12/18 07:30:26;;;;;;;;;;;;;;;3.53;87.05;100828.53;5093671;28;19924;-70
2020/12/18 07:32:56;;;;;;;;;;;;;;;3.57;87.14;100825.38;5094845;28;19931;-70
2020/12/18 07:35:23;;;;;;;;;;;;;;;3.62;87.01;100836.56;5094760;28;19935;-70
2020/12/18 07:37:51;;;;;;;;;;;;;;;3.69;86.31;100830.97;5094690;28;19959;-71
2020/12/18 07:40:24;;;;;;;;;;;;;;;3.71;86.80;100826.84;5094590;28;19924;-69
2020/12/18 07:42:51;;;;;;;;;;;;;;;3.74;86.86;100829.50;5094327;28;20404;-70
2020/12/18 07:45:25;;;;;;;;;;;;;;;3.72;86.94;100833.63;5094697;28;19924;-70
2020/12/18 07:47:53;;;;;;;;;;;;;;;3.74;86.83;100831.19;5094703;28;19924;-70
2020/12/18 07:50:20;;;;;;;;;;;;;;;3.72;86.95;100836.13;5094512;28;20390;-69
2020/12/18 07:52:47;;;;;;;;;;;;;;;3.73;86.81;100831.97;5094819;28;19931;-70
2020/12/18 07:55:27;;;;;;;;;;;;;;;3.73;86.78;100832.84;5094528;28;19932;-70
2020/12/18 07:57:54;;;;;;;;;;;;;;;3.76;86.73;100838.03;5094561;28;19931;-69
2020/12/18 08:00:21;;;;;;;;;;;;;;;3.72;86.36;100841.19;5094323;28;19924;-70
2020/12/18 08:02:50;;;;;;;;;;;;;;;3.73;86.58;100842.94;5094384;28;19955;-71
2020/12/18 08:05:19;;;;;;;;;;;;;;;3.67;86.72;100842.63;5094308;28;19951;-71
2020/12/18 08:07:47;;;;;;;;;;;;;;;3.77;86.61;100849.84;5094559;28;19924;-70
2020/12/18 08:10:19;;;;;;;;;;;;;;;3.80;86.18;100849.13;5094253;28;19924;-69
2020/12/18 08:12:49;;;;;;;;;;;;;;;3.89;86.03;100844.47;5094584;28;19931;-69
2020/12/18 08:15:18;;;;;;;;;;;;;;;3.87;86.27;100846.06;5093760;28;19924;-70
2020/12/18 08:17:45;;;;;;;;;;;;;;;3.89;86.27;100850.38;5094134;28;19924;-70
2020/12/18 08:20:15;;;;;;;;;;;;;;;4.01;86.21;100839.97;5092822;28;19931;-71
2020/12/18 08:22:44;;;;;;;;;;;;;;;4.06;86.21;100844.41;5094093;28;19924;-71
2020/12/18 08:25:12;;;;;;;;;;;;;;;4.02;86.02;100837.53;5094058;28;19993;-71
2020/12/18 08:27:41;;;;;;;;;;;;;;;3.99;85.96;100836.50;5094083;28;19924;-71
2020/12/18 08:30:27;;;;;;;;;;;;;;;4.01;85.57;100840.81;5094038;28;19932;-71
2020/12/18 08:32:54;;;;;;;;;;;;;;;4.05;86.20;100851.94;5031860;28;19937;-70
2020/12/18 08:35:23;;;;;;;;;;;;;;;4.08;85.65;100849.53;5032026;28;19951;-69
2020/12/18 08:37:51;;;;;;;;;;;;;;;4.13;86.16;100852.28;5031843;28;19937;-69
2020/12/18 08:40:20;;;;;;;;;;;;;;;4.16;85.71;100859.97;5031589;28;19929;-70
2020/12/18 08:42:50;;;;;;;;;;;;;;;4.07;85.61;100858.78;5031765;28;19932;-70
2020/12/18 08:45:17;;;;;;;;;;;;;;;4.10;85.93;100867.31;5031683;28;19925;-69
2020/12/18 08:47:45;;;;;;;;;;;;;;;4.08;85.86;100857.97;5015281;28;19925;-71
2020/12/18 08:50:12;;;;;;;;;;;;;;;4.04;85.50;100861.19;5031731;28;20375;-71
2020/12/18 08:52:42;;;;;;;;;;;;;;;3.99;84.92;100867.69;5016052;28;19978;-71
2020/12/18 08:55:10;;;;;;;;;;;;;;;4.03;84.94;100872.06;5035624;28;19937;-71
2020/12/18 08:57:37;;;;;;;;;;;;;;;4.03;84.44;100876.28;5035658;28;19971;-69
2020/12/18 09:00:07;;;;;;;;;;;;;;;4.13;84.55;100877.53;5035413;28;19963;-70
2020/12/18 09:02:36;;;;;;;;;;;;;;;4.14;84.61;100875.06;5035551;28;19925;-69
2020/12/18 09:05:06;;;;;;;;;;;;;;;4.18;84.19;100883.63;5035398;28;19967;-69
2020/12/18 09:07:36;;;;;;;;;;;;;;;4.21;84.51;100878.72;5035359;28;19932;-71
2020/12/18 09:10:05;;;;;;;;;;;;;;;4.25;83.95;100875.56;5067181;28;20447;-69
2020/12/18 09:12:38;;;;;;;;;;;;;;;4.18;83.80;100873.53;5097555;28;19924;-70
2020/12/18 09:15:08;;;;;;;;;;;;;;;4.11;83.58;100879.97;5097331;28;19931;-69
2020/12/18 09:17:35;;;;;;;;;;;;;;;4.14;83.67;100876.72;5097385;28;19924;-70
2020/12/18 09:20:04;;;;;;;;;;;;;;;4.17;83.13;100881.94;5097322;28;19932;-70
2020/12/18 09:22:32;;;;;;;;;;;;;;;4.15;83.06;100878.47;5097294;28;19933;-71
2020/12/18 09:25:02;;;;;;;;;;;;;;;4.17;83.13;100881.94;5097324;28;19924;-70
2020/12/18 09:27:31;;;;;;;;;;;;;;;4.19;82.50;100882.84;5097819;28;19924;-70
2020/12/18 09:29:58;;;;;;;;;;;;;;;4.20;82.53;100893.00;5097092;28;19924;-70
2020/12/18 09:32:25;;;;;;;;;;;;;;;4.26;82.47;100892.44;5097208;28;19925;-70
2020/12/18 09:34:54;;;;;;;;;;;;;;;4.19;82.21;100881.19;5097058;28;20007;-70
2020/12/18 09:37:21;;;;;;;;;;;;;;;4.23;82.23;100883.03;5097115;28;19935;-69
2020/12/18 09:39:48;;;;;;;;;;;;;;;4.24;82.17;100883.91;5097322;28;19924;-70
2020/12/18 09:42:16;;;;;;;;;;;;;;;4.28;82.12;100888.31;5096897;28;19976;-69
2020/12/18 09:44:44;;;;;;;;;;;;;;;4.29;82.03;100892.56;5096969;28;19931;-69
2020/12/18 09:47:11;;;;;;;;;;;;;;;4.23;82.11;100893.16;5096791;28;19931;-71
2020/12/18 09:49:40;;;;;;;;;;;;;;;4.20;81.83;100887.97;5096828;28;19947;-71
2020/12/18 09:52:07;;;;;;;;;;;;;;;4.19;82.19;100890.44;5096770;28;19967;-68
2020/12/18 09:54:35;;;;;;;;;;;;;;;4.23;82.46;100892.28;5096696;28;19960;-70
2020/12/18 09:57:03;;;;;;;;;;;;;;;4.24;82.16;100884.78;5096597;28;20343;-69
2020/12/18 09:59:30;;;;;;;;;;;;;;;4.27;82.00;100882.38;5096554;28;19946;-70
2020/12/18 10:01:59;;;;;;;;;;;;;;;4.27;81.92;100879.84;5096895;28;20335;-70
2020/12/18 10:04:27;;;;;;;;;;;;;;;4.29;81.79;100877.41;5094776;28;19977;-71
2020/12/18 10:06:54;;;;;;;;;;;;;;;4.22;81.86;100876.28;5096537;28;19931;-69
2020/12/18 10:09:22;;;;;;;;;;;;;;;4.23;81.96;100874.59;5095254;28;19928;-69
2020/12/18 10:11:49;;;;;;;;;;;;;;;4.28;82.43;100875.66;5096370;28;19924;-70
2020/12/18 10:14:19;;;;;;;;;;;;;;;4.29;81.97;100870.69;5096410;28;19955;-71
2020/12/18 10:16:46;;;;;;;;;;;;;;;4.38;82.42;100872.75;5095956;28;19950;-72
2020/12/18 10:19:14;;;;;;;;;;;;;;;4.42;82.11;100869.53;5096159;28;19931;-71
2020/12/18 10:21:42;;;;;;;;;;;;;;;4.41;82.58;100867.81;5096246;28;20018;-71
2020/12/18 10:24:11;;;;;;;;;;;;;;;4.37;82.48;100871.00;5096392;28;19985;-72
2020/12/18 10:26:54;;;;;;;;;;;;;;;4.37;82.41;100860.88;5096119;28;19928;-71
2020/12/18 10:29:22;;;;;;;;;;;;;;;4.40;82.68;100871.13;5096052;28;19932;-69
2020/12/18 10:31:52;;;;;;;;;;;;;;;4.42;82.55;100854.38;5096109;28;19924;-70
2020/12/18 10:34:21;;;;;;;;;;;;;;;4.39;81.88;100854.25;5095932;28;19924;-70
2020/12/18 10:36:50;;;;;;;;;;;;;;;4.46;81.85;100854.56;5095951;28;19924;-71
2020/12/18 10:39:17;;;;;;;;;;;;;;;4.53;82.27;100853.19;5095745;28;19977;-70
2020/12/18 10:41:45;;;;;;;;;;;;;;;4.53;81.86;100853.19;5094627;28;19978;-70
2020/12/18 10:44:12;;;;;;;;;;;;;;;4.48;82.34;100852.13;5095733;28;20429;-71
2020/12/18 10:46:41;;;;;;;;;;;;;;;4.51;82.07;100857.31;5095696;28;20015;-70
2020/12/18 10:49:09;;;;;;;;;;;;;;;4.53;82.16;100859.09;5095653;28;19931;-69
2020/12/18 10:51:39;;;;;;;;;;;;;;;4.55;82.43;100854.09;5095909;28;20370;-69
2020/12/18 10:54:06;;;;;;;;;;;;;;;4.50;82.33;100853.03;5095571;28;19924;-69
2020/12/18 10:56:39;;;;;;;;;;;;;;;4.48;82.50;100860.56;5094587;28;19939;-70
2020/12/18 10:59:06;;;;;;;;;;;;;;;4.39;82.42;100855.09;5095872;28;20037;-69
2020/12/18 11:01:33;;;;;;;;;;;;;;;4.44;82.59;100857.84;5095708;28;19931;-69
2020/12/18 11:04:01;;;;;;;;;;;;;;;4.50;82.45;100858.97;5095352;28;19924;-70
2020/12/18 11:06:28;;;;;;;;;;;;;;;4.48;82.59;100857.19;5095348;28;20306;-71
2020/12/18 11:08:57;;;;;;;;;;;;;;;4.47;82.75;100860.50;5095284;28;19925;-71
2020/12/18 11:11:24;;;;;;;;;;;;;;;4.47;82.57;100857.97;5095276;28;19947;-70
2020/12/18 11:13:52;;;;;;;;;;;;;;;4.40;82.49;100855.97;5093989;28;19924;-70
2020/12/18 11:16:23;;;;;;;;;;;;;;;4.42;82.60;100857.78;5094048;28;20054;-70
2020/12/18 11:18:50;;;;;;;;;;;;;;;4.44;83.10;100858.69;5095133;28;19928;-69
2020/12/18 11:21:17;;;;;;;;;;;;;;;4.47;82.73;100863.03;5095267;28;19974;-69
2020/12/18 11:23:45;;;;;;;;;;;;;;;4.45;82.71;100862.97;5095335;28;20011;-69
2020/12/18 11:26:13;;;;;;;;;;;;;;;4.42;82.87;100861.94;5095158;28;20009;-69
2020/12/18 11:28:40;;;;;;;;;;;;;;;4.46;82.64;100861.31;5094951;28;19939;-70
2020/12/18 11:31:09;;;;;;;;;;;;;;;4.48;82.86;100862.22;5093946;28;19923;-70
2020/12/18 11:33:36;;;;;;;;;;;;;;;4.50;82.62;100863.16;5095226;28;20049;-72
2020/12/18 11:36:04;;;;;;;;;;;;;;;4.53;82.58;100864.16;5094806;28;19973;-70
2020/12/18 11:38:31;;;;;;;;;;;;;;;4.50;82.79;100858.97;5094707;28;20358;-71
2020/12/18 11:40:59;;;;;;;;;;;;;;;4.46;82.75;100861.31;5094627;28;19966;-72
2020/12/18 11:43:27;;;;;;;;;;;;;;;4.44;82.78;100852.81;5093522;28;20009;-69
2020/12/18 11:45:56;;;;;;;;;;;;;;;4.45;83.03;100850.31;5094624;28;19924;-69
2020/12/18 11:48:24;;;;;;;;;;;;;;;4.44;83.08;100853.63;5094555;28;19928;-69
2020/12/18 11:50:52;;;;;;;;;;;;;;;4.48;83.29;100854.66;5094563;28;19928;-69
2020/12/18 11:53:19;;;;;;;;;;;;;;;4.47;83.00;100852.91;5094406;28;19930;-69
2020/12/18 11:55:48;;;;;;;;;;;;;;;4.52;82.97;100853.97;5094475;28;19931;-71
2020/12/18 11:58:15;;;;;;;;;;;;;;;4.56;83.19;100850.75;5094337;28;19960;-71
2020/12/18 12:00:44;;;;;;;;;;;;;;;4.53;82.82;100843.94;5094388;28;20381;-71
2020/12/18 12:03:13;;;;;;;;;;;;;;;4.64;82.80;100851.94;5094426;28;19932;-71
2020/12/18 12:05:41;;;;;;;;;;;;;;;4.68;82.86;100848.75;5094359;28;19924;-71
2020/12/18 12:08:08;;;;;;;;;;;;;;;4.64;83.10;100846.91;5094232;28;20385;-71
2020/12/18 12:10:37;;;;;;;;;;;;;;;4.61;82.52;100849.28;5094243;28;19924;-71
2020/12/18 12:13:04;;;;;;;;;;;;;;;4.65;83.32;100843.59;5094143;28;20023;-71
2020/12/18 12:15:32;;;;;;;;;;;;;;;4.63;83.42;100845.19;5094002;28;19935;-71
2020/12/18 12:18:02;;;;;;;;;;;;;;;4.64;83.19;100834.25;5094175;28;19924;-69
2020/12/18 12:20:30;;;;;;;;;;;;;;;4.67;83.08;100847.03;5094151;28;19931;-70
2020/12/18 12:22:57;;;;;;;;;;;;;;;4.69;83.58;100842.91;5094097;28;19924;-71
2020/12/18 12:25:25;;;;;;;;;;;;;;;4.67;83.33;100842.84;5094086;28;19924;-71
2020/12/18 12:27:59;;;;;;;;;;;;;;;4.65;83.31;100843.59;5093888;28;19924;-71
2020/12/18 12:30:27;;;;;;;;;;;;;;;4.59;83.67;100845.84;5094035;28;20369;-71
2020/12/18 12:32:54;;;;;;;;;;;;;;;4.64;83.40;100851.94;5093974;28;19930;-72
2020/12/18 12:35:24;;;;;;;;;;;;;;;4.64;83.47;100845.25;5093908;28;19931;-71
2020/12/18 12:37:51;;;;;;;;;;;;;;;4.66;83.25;100850.34;5094538;28;20034;-71
2020/12/18 12:40:19;;;;;;;;;;;;;;;4.63;83.52;100847.72;5093882;28;19977;-71
2020/12/18 12:42:46;;;;;;;;;;;;;;;4.64;83.75;100841.84;5093974;28;19924;-71
2020/12/18 12:45:13;;;;;;;;;;;;;;;4.67;83.53;100847.91;5093915;28;19978;-71
2020/12/18 12:47:41;;;;;;;;;;;;;;;4.67;83.42;100847.91;5092549;28;19924;-71
2020/12/18 12:50:26;;;;;;;;;;;;;;;4.58;83.58;100846.66;5094548;28;19928;-71
2020/12/18 12:52:55;;;;;;;;;;;;;;;4.51;83.98;100844.69;5031549;28;19932;-71
2020/12/18 12:55:22;;;;;;;;;;;;;;;4.53;84.02;100849.00;5031818;28;20347;-72
2020/12/18 12:57:51;;;;;;;;;;;;;;;4.56;83.72;100849.09;5031455;28;19929;-70
2020/12/18 13:00:18;;;;;;;;;;;;;;;4.55;84.27;100846.53;5031544;28;19925;-69
2020/12/18 13:02:45;;;;;;;;;;;;;;;4.48;84.24;100850.47;5031537;28;19925;-70
2020/12/18 13:05:15;;;;;;;;;;;;;;;4.48;84.24;100845.41;5031759;28;20023;-70
2020/12/18 13:07:43;;;;;;;;;;;;;;;4.48;84.33;100845.41;5031580;28;19925;-70